createdAt,value
2018-12-30T00:00:34.098Z,48.13
2018-12-30T00:02:10.525Z,43.27
2018-12-30T00:03:46.679Z,40.37
2018-12-30T00:05:23.194Z,41.87
2018-12-30T00:06:59.386Z,36.83
2018-12-30T00:08:35.417Z,37.07
2018-12-30T00:10:11.659Z,37.57
2018-12-30T00:11:47.749Z,42.80
2018-12-30T00:13:24.045Z,37.00
2018-12-30T00:15:02.052Z,42.43
2018-12-30T00:16:39.427Z,32.93
2018-12-30T00:18:15.654Z,42.83
2018-12-30T00:19:51.888Z,36.47
2018-12-30T00:21:28.012Z,34.53
2018-12-30T00:23:04.250Z,42.60
2018-12-30T00:24:40.319Z,32.20
2018-12-30T00:26:16.498Z,34.83
2018-12-30T00:27:52.598Z,32.93
2018-12-30T00:29:28.825Z,34.07
2018-12-30T00:31:05.016Z,26.33
2018-12-30T00:32:41.453Z,33.40
2018-12-30T00:34:17.540Z,35.30
2018-12-30T00:35:53.650Z,32.70
2018-12-30T00:37:29.779Z,25.63
2018-12-30T00:39:07.197Z,31.77
2018-12-30T00:40:43.394Z,28.10
2018-12-30T00:42:19.625Z,28.87
2018-12-30T00:43:55.859Z,25.80
2018-12-30T00:45:31.977Z,29.70
2018-12-30T00:47:08.101Z,31.27
2018-12-30T00:48:44.337Z,27.70
2018-12-30T00:50:20.458Z,24.30
2018-12-30T00:51:56.578Z,24.77
2018-12-30T00:53:32.737Z,24.07
2018-12-30T00:55:08.810Z,28.07
2018-12-30T00:56:44.933Z,28.87
2018-12-30T00:58:21.030Z,21.83
2018-12-30T00:59:57.461Z,22.37
2018-12-30T01:01:33.687Z,21.87
2018-12-30T01:03:09.817Z,25.53
2018-12-30T01:04:46.017Z,23.40
2018-12-30T01:06:22.170Z,22.83
2018-12-30T01:07:58.661Z,21.97
2018-12-30T01:09:34.847Z,26.43
2018-12-30T01:11:11.127Z,20.70
2018-12-30T01:12:47.330Z,25.70
2018-12-30T01:14:23.432Z,18.07
2018-12-30T01:15:59.541Z,24.03
2018-12-30T01:17:35.653Z,25.03
2018-12-30T01:19:11.797Z,21.17
2018-12-30T01:20:47.984Z,21.87
2018-12-30T01:22:26.693Z,17.43
2018-12-30T01:24:02.824Z,22.07
2018-12-30T01:25:38.967Z,21.53
2018-12-30T01:27:15.266Z,22.97
2018-12-30T01:28:51.398Z,21.27
2018-12-30T01:30:27.526Z,21.90
2018-12-30T01:32:03.640Z,20.60
2018-12-30T01:33:39.926Z,21.67
2018-12-30T01:35:16.474Z,21.33
2018-12-30T01:36:52.590Z,17.87
2018-12-30T01:38:28.754Z,23.43
2018-12-30T01:40:05.243Z,23.73
2018-12-30T01:41:43.097Z,22.27
2018-12-30T01:43:20.850Z,22.17
2018-12-30T01:44:57.032Z,23.13
2018-12-30T01:46:33.519Z,20.00
2018-12-30T01:48:09.741Z,20.83
2018-12-30T01:49:45.841Z,21.03
2018-12-30T01:51:22.038Z,19.20
2018-12-30T01:52:58.169Z,20.13
2018-12-30T01:54:35.932Z,20.13
2018-12-30T01:56:12.015Z,19.03
2018-12-30T01:57:48.134Z,18.57
2018-12-30T01:59:24.338Z,17.93
2018-12-30T02:01:00.452Z,20.83
2018-12-30T02:02:36.552Z,22.47
2018-12-30T02:04:13.013Z,21.60
2018-12-30T02:05:51.156Z,20.30
2018-12-30T02:07:27.376Z,19.77
2018-12-30T02:09:04.544Z,20.17
2018-12-30T02:10:40.731Z,21.77
2018-12-30T02:12:21.170Z,20.17
2018-12-30T02:13:57.255Z,19.20
2018-12-30T02:15:33.307Z,18.83
2018-12-30T02:17:09.889Z,14.97
2018-12-30T02:18:46.039Z,21.60
2018-12-30T02:20:22.152Z,21.67
2018-12-30T02:21:58.457Z,24.03
2018-12-30T02:23:34.589Z,16.90
2018-12-30T02:25:10.710Z,19.37
2018-12-30T02:26:46.882Z,17.30
2018-12-30T02:28:23.399Z,19.80
2018-12-30T02:29:59.531Z,23.93
2018-12-30T02:31:35.651Z,19.33
2018-12-30T02:33:11.780Z,18.60
2018-12-30T02:34:48.008Z,22.27
2018-12-30T02:36:24.114Z,20.50
2018-12-30T02:38:00.297Z,19.47
2018-12-30T02:39:36.453Z,19.33
2018-12-30T02:41:12.567Z,17.23
2018-12-30T02:42:48.754Z,19.30
2018-12-30T02:44:26.556Z,18.07
2018-12-30T02:46:02.690Z,22.77
2018-12-30T02:47:38.861Z,23.67
2018-12-30T02:49:14.982Z,22.03
2018-12-30T02:50:51.093Z,19.70
2018-12-30T02:52:27.175Z,19.00
2018-12-30T02:54:03.433Z,18.63
2018-12-30T02:55:39.491Z,17.57
2018-12-30T02:57:15.687Z,19.83
2018-12-30T02:58:52.371Z,17.67
2018-12-30T03:00:28.501Z,16.30
2018-12-30T03:02:05.152Z,15.73
2018-12-30T03:03:41.270Z,19.50
2018-12-30T03:05:17.565Z,20.40
2018-12-30T03:06:53.669Z,21.07
2018-12-30T03:08:29.819Z,16.53
2018-12-30T03:10:06.388Z,17.63
2018-12-30T03:11:42.518Z,20.77
2018-12-30T03:13:18.646Z,16.10
2018-12-30T03:14:54.725Z,16.13
2018-12-30T03:16:30.817Z,18.63
2018-12-30T03:18:07.072Z,13.47
2018-12-30T03:19:43.206Z,14.67
2018-12-30T03:21:19.569Z,18.27
2018-12-30T03:22:55.803Z,19.00
2018-12-30T03:24:31.981Z,18.30
2018-12-30T03:26:08.104Z,17.77
2018-12-30T03:27:44.193Z,16.67
2018-12-30T03:29:20.325Z,20.43
2018-12-30T03:30:56.463Z,18.90
2018-12-30T03:32:32.551Z,16.67
2018-12-30T03:34:08.570Z,19.13
2018-12-30T03:35:44.568Z,13.63
2018-12-30T03:37:20.697Z,14.03
2018-12-30T03:38:56.974Z,16.30
2018-12-30T03:40:33.021Z,18.33
2018-12-30T03:42:09.198Z,20.20
2018-12-30T03:43:45.256Z,20.40
2018-12-30T03:45:21.333Z,20.20
2018-12-30T03:46:57.373Z,13.60
2018-12-30T03:48:33.441Z,15.53
2018-12-30T03:50:09.554Z,17.07
2018-12-30T03:51:45.718Z,18.47
2018-12-30T03:53:21.797Z,20.87
2018-12-30T03:54:57.829Z,16.53
2018-12-30T03:56:33.894Z,17.43
2018-12-30T03:58:10.023Z,15.57
2018-12-30T03:59:46.066Z,17.73
2018-12-30T04:01:22.189Z,17.93
2018-12-30T04:02:58.257Z,17.73
2018-12-30T04:04:34.311Z,20.83
2018-12-30T04:06:10.411Z,17.97
2018-12-30T04:07:46.463Z,19.63
2018-12-30T04:09:22.706Z,14.30
2018-12-30T04:10:58.908Z,20.57
2018-12-30T04:12:35.035Z,20.80
2018-12-30T04:14:11.114Z,19.93
2018-12-30T04:15:47.137Z,18.87
2018-12-30T04:17:23.209Z,19.90
2018-12-30T04:18:59.224Z,21.17
2018-12-30T04:20:35.381Z,20.90
2018-12-30T04:22:16.756Z,21.87
2018-12-30T04:23:49.259Z,23.73
2018-12-30T04:25:25.271Z,20.83
2018-12-30T04:27:01.354Z,21.73
2018-12-30T04:28:37.575Z,21.73
2018-12-30T04:30:13.688Z,19.83
2018-12-30T04:31:49.746Z,21.10
2018-12-30T04:33:25.813Z,17.50
2018-12-30T04:35:01.911Z,16.27
2018-12-30T04:36:38.061Z,21.37
2018-12-30T04:38:14.165Z,23.87
2018-12-30T04:39:50.217Z,22.50
2018-12-30T04:41:26.242Z,20.40
2018-12-30T04:43:02.630Z,21.53
2018-12-30T04:44:38.741Z,21.43
2018-12-30T04:46:14.941Z,24.60
2018-12-30T04:47:50.967Z,25.37
2018-12-30T04:49:27.006Z,20.20
2018-12-30T04:51:03.090Z,22.80
2018-12-30T04:52:39.292Z,22.80
2018-12-30T04:54:15.348Z,20.70
2018-12-30T04:55:51.422Z,21.77
2018-12-30T04:57:27.576Z,26.07
2018-12-30T04:59:03.578Z,20.73
2018-12-30T05:00:39.620Z,23.33
2018-12-30T05:02:15.852Z,23.53
2018-12-30T05:03:51.854Z,21.13
2018-12-30T05:05:27.888Z,23.40
2018-12-30T05:07:03.938Z,22.67
2018-12-30T05:08:40.236Z,21.40
2018-12-30T05:10:16.242Z,21.67
2018-12-30T05:11:52.385Z,24.10
2018-12-30T05:13:28.482Z,22.70
2018-12-30T05:15:04.976Z,26.17
2018-12-30T05:16:41.085Z,24.73
2018-12-30T05:18:17.122Z,17.70
2018-12-30T05:19:53.294Z,23.87
2018-12-30T05:21:29.458Z,23.33
2018-12-30T05:23:05.563Z,24.27
2018-12-30T05:24:41.677Z,21.97
2018-12-30T05:26:18.754Z,21.83
2018-12-30T05:27:54.942Z,24.33
2018-12-30T05:29:31.036Z,18.97
2018-12-30T05:31:07.095Z,22.13
2018-12-30T05:32:43.161Z,24.00
2018-12-30T05:34:19.189Z,22.70
2018-12-30T05:35:55.228Z,22.37
2018-12-30T05:37:31.310Z,20.33
2018-12-30T05:39:07.806Z,22.57
2018-12-30T05:40:43.947Z,21.70
2018-12-30T05:42:20.167Z,21.93
2018-12-30T05:43:56.189Z,24.60
2018-12-30T05:45:32.366Z,27.03
2018-12-30T05:47:10.976Z,30.67
2018-12-30T05:48:47.117Z,20.97
2018-12-30T05:50:23.157Z,25.27
2018-12-30T05:51:59.300Z,24.87
2018-12-30T05:53:35.310Z,25.87
2018-12-30T05:55:11.404Z,26.67
2018-12-30T05:56:47.542Z,24.33
2018-12-30T05:58:23.624Z,19.00
2018-12-30T05:59:59.665Z,29.83
2018-12-30T06:01:35.694Z,27.17
2018-12-30T06:03:11.842Z,25.73
2018-12-30T06:04:47.872Z,23.93
2018-12-30T06:06:23.885Z,28.93
2018-12-30T06:08:00.030Z,22.80
2018-12-30T06:09:36.077Z,24.90
2018-12-30T06:11:12.134Z,25.63
2018-12-30T06:12:48.171Z,25.60
2018-12-30T06:14:24.223Z,23.63
2018-12-30T06:16:00.278Z,27.20
2018-12-30T06:17:36.402Z,29.73
2018-12-30T06:19:12.454Z,23.80
2018-12-30T06:20:48.549Z,22.80
2018-12-30T06:22:24.613Z,32.10
2018-12-30T06:24:02.365Z,28.87
2018-12-30T06:25:38.382Z,25.53
2018-12-30T06:27:14.466Z,23.57
2018-12-30T06:28:50.508Z,24.00
2018-12-30T06:30:26.717Z,27.27
2018-12-30T06:32:02.926Z,26.23
2018-12-30T06:33:38.994Z,25.70
2018-12-30T06:35:15.030Z,28.47
2018-12-30T06:36:51.134Z,27.63
2018-12-30T06:38:27.215Z,27.70
2018-12-30T06:40:11.098Z,28.07
2018-12-30T06:41:41.101Z,23.70
2018-12-30T06:43:17.176Z,23.23
2018-12-30T06:44:53.248Z,19.47
2018-12-30T06:46:29.296Z,23.20
2018-12-30T06:48:05.329Z,24.00
2018-12-30T06:49:41.466Z,30.47
2018-12-30T06:51:17.511Z,24.60
2018-12-30T06:52:57.508Z,22.27
2018-12-30T06:54:31.345Z,23.30
2018-12-30T06:56:07.498Z,21.90
2018-12-30T06:57:43.631Z,20.70
2018-12-30T06:59:19.686Z,23.37
2018-12-30T07:00:55.797Z,24.57
2018-12-30T07:02:31.953Z,25.30
2018-12-30T07:04:08.022Z,21.10
2018-12-30T07:05:44.055Z,21.53
2018-12-30T07:07:20.087Z,23.33
2018-12-30T07:08:56.195Z,22.97
2018-12-30T07:10:32.225Z,20.57
2018-12-30T07:12:08.442Z,21.03
2018-12-30T07:13:44.502Z,24.97
2018-12-30T07:15:21.612Z,23.83
2018-12-30T07:16:57.677Z,23.87
2018-12-30T07:18:36.478Z,22.63
2018-12-30T07:20:12.485Z,22.40
2018-12-30T07:21:48.592Z,18.83
2018-12-30T07:23:24.806Z,18.57
2018-12-30T07:25:00.882Z,20.03
2018-12-30T07:26:36.919Z,18.13
2018-12-30T07:28:13.009Z,18.93
2018-12-30T07:29:49.021Z,18.20
2018-12-30T07:31:25.209Z,17.97
2018-12-30T07:33:01.257Z,18.73
2018-12-30T07:34:37.350Z,17.07
2018-12-30T07:36:13.369Z,21.80
2018-12-30T07:37:49.404Z,11.97
2018-12-30T07:39:25.533Z,16.60
2018-12-30T07:41:02.568Z,16.87
2018-12-30T07:42:38.667Z,22.03
2018-12-30T07:44:14.710Z,19.03
2018-12-30T07:45:50.763Z,16.00
2018-12-30T07:47:26.856Z,19.77
2018-12-30T07:49:03.018Z,14.53
2018-12-30T07:50:39.126Z,21.27
2018-12-30T07:52:15.261Z,17.27
2018-12-30T07:53:51.305Z,20.87
2018-12-30T07:55:27.350Z,15.00
2018-12-30T07:57:03.462Z,17.80
2018-12-30T07:58:39.578Z,19.27
2018-12-30T08:00:15.843Z,12.57
2018-12-30T08:01:51.925Z,16.37
2018-12-30T08:03:28.087Z,19.00
2018-12-30T08:05:07.070Z,19.03
2018-12-30T08:06:43.098Z,19.07
2018-12-30T08:08:19.113Z,19.87
2018-12-30T08:09:55.172Z,18.27
2018-12-30T08:11:31.210Z,23.57
2018-12-30T08:13:07.238Z,16.67
2018-12-30T08:14:43.380Z,21.70
2018-12-30T08:16:19.409Z,24.50
2018-12-30T08:17:55.489Z,20.57
2018-12-30T08:19:31.535Z,22.20
2018-12-30T08:21:07.568Z,21.27
2018-12-30T08:22:43.643Z,18.10
2018-12-30T08:24:21.320Z,18.83
2018-12-30T08:25:57.334Z,19.57
2018-12-30T08:27:33.366Z,25.27
2018-12-30T08:29:09.435Z,19.27
2018-12-30T08:30:45.537Z,21.07
2018-12-30T08:32:21.778Z,20.47
2018-12-30T08:33:57.838Z,17.20
2018-12-30T08:35:34.836Z,21.27
2018-12-30T08:37:10.989Z,21.00
2018-12-30T08:38:47.940Z,20.00
2018-12-30T08:40:24.110Z,19.73
2018-12-30T08:42:00.153Z,21.87
2018-12-30T08:43:36.193Z,22.57
2018-12-30T08:45:12.458Z,18.70
2018-12-30T08:46:48.581Z,19.50
2018-12-30T08:48:24.726Z,24.00
2018-12-30T08:50:00.879Z,22.43
2018-12-30T08:51:37.001Z,24.07
2018-12-30T08:53:13.125Z,21.93
2018-12-30T08:54:49.279Z,20.27
2018-12-30T08:56:25.370Z,18.03
2018-12-30T08:58:01.489Z,21.97
2018-12-30T08:59:37.548Z,21.10
2018-12-30T09:01:13.570Z,20.23
2018-12-30T09:02:49.745Z,21.57
2018-12-30T09:04:28.533Z,21.10
2018-12-30T09:06:04.624Z,18.50
2018-12-30T09:07:43.554Z,24.60
2018-12-30T09:09:19.684Z,19.80
2018-12-30T09:10:55.705Z,23.63
2018-12-30T09:12:31.845Z,21.23
2018-12-30T09:14:07.861Z,23.80
2018-12-30T09:15:44.134Z,20.43
2018-12-30T09:17:20.258Z,20.40
2018-12-30T09:18:56.317Z,20.97
2018-12-30T09:20:32.553Z,19.23
2018-12-30T09:22:08.603Z,21.50
2018-12-30T09:23:44.683Z,21.33
2018-12-30T09:25:20.822Z,23.50
2018-12-30T09:26:56.873Z,24.97
2018-12-30T09:28:34.550Z,22.07
2018-12-30T09:30:10.758Z,25.70
2018-12-30T09:31:47.784Z,21.70
2018-12-30T09:33:23.853Z,22.43
2018-12-30T09:35:04.413Z,18.57
2018-12-30T09:36:40.499Z,21.70
2018-12-30T09:38:16.536Z,18.77
2018-12-30T09:39:52.640Z,17.63
2018-12-30T09:41:28.810Z,20.00
2018-12-30T09:43:04.834Z,19.70
2018-12-30T09:44:40.881Z,19.50
2018-12-30T09:46:16.904Z,16.77
2018-12-30T09:47:52.989Z,17.23
2018-12-30T09:49:29.009Z,18.13
2018-12-30T09:51:05.962Z,19.57
2018-12-30T09:52:42.070Z,15.00
2018-12-30T09:54:18.196Z,18.03
2018-12-30T09:55:54.349Z,22.73
2018-12-30T09:57:32.021Z,18.37
2018-12-30T09:59:08.097Z,21.43
2018-12-30T10:00:44.309Z,19.60
2018-12-30T10:02:20.341Z,22.47
2018-12-30T10:03:56.630Z,17.10
2018-12-30T10:05:32.826Z,15.43
2018-12-30T10:07:08.914Z,14.40
2018-12-30T10:08:45.001Z,19.33
2018-12-30T10:10:21.153Z,17.93
2018-12-30T10:11:57.223Z,21.23
2018-12-30T10:13:33.370Z,21.20
2018-12-30T10:15:10.229Z,22.23
2018-12-30T10:16:46.457Z,20.17
2018-12-30T10:18:22.497Z,23.70
2018-12-30T10:19:58.706Z,27.03
2018-12-30T10:21:34.857Z,24.23
2018-12-30T10:23:11.140Z,15.53
2018-12-30T10:24:47.259Z,16.50
2018-12-30T10:26:23.369Z,15.77
2018-12-30T10:27:59.406Z,21.80
2018-12-30T10:29:35.537Z,20.57
2018-12-30T10:31:11.689Z,19.60
2018-12-30T10:32:47.786Z,25.90
2018-12-30T10:34:23.849Z,20.83
2018-12-30T10:35:59.890Z,19.50
2018-12-30T10:37:35.991Z,18.13
2018-12-30T10:39:12.014Z,18.80
2018-12-30T10:40:48.273Z,18.57
2018-12-30T10:42:24.350Z,21.00
2018-12-30T10:44:00.456Z,24.60
2018-12-30T10:45:36.574Z,15.97
2018-12-30T10:47:12.572Z,17.97
2018-12-30T10:48:49.609Z,20.77
2018-12-30T10:50:25.622Z,17.17
2018-12-30T10:52:01.734Z,18.67
2018-12-30T10:53:37.810Z,19.07
2018-12-30T10:55:13.824Z,17.93
2018-12-30T10:56:50.000Z,18.00
2018-12-30T10:58:26.181Z,17.97
2018-12-30T11:00:02.345Z,21.17
2018-12-30T11:01:39.234Z,19.43
2018-12-30T11:03:15.293Z,24.60
2018-12-30T11:04:51.373Z,18.23
2018-12-30T11:06:27.676Z,24.90
2018-12-30T11:08:03.894Z,20.43
2018-12-30T11:09:40.204Z,22.60
2018-12-30T11:11:19.761Z,19.07
2018-12-30T11:12:55.977Z,14.90
2018-12-30T11:14:32.034Z,13.10
2018-12-30T11:16:08.083Z,18.97
2018-12-30T11:17:44.145Z,17.53
2018-12-30T11:19:20.169Z,15.83
2018-12-30T11:20:56.235Z,18.37
2018-12-30T11:22:32.383Z,13.17
2018-12-30T11:24:08.962Z,16.03
2018-12-30T11:25:45.226Z,20.53
2018-12-30T11:27:21.396Z,15.63
2018-12-30T11:28:57.410Z,14.10
2018-12-30T11:30:33.612Z,22.07
2018-12-30T11:32:10.053Z,17.20
2018-12-30T11:33:46.193Z,17.63
2018-12-30T11:35:22.337Z,13.10
2018-12-30T11:36:58.382Z,16.00
2018-12-30T11:38:34.526Z,13.43
2018-12-30T11:40:10.706Z,22.73
2018-12-30T11:41:46.781Z,17.97
2018-12-30T11:43:23.214Z,17.47
2018-12-30T11:44:59.373Z,17.57
2018-12-30T11:46:35.509Z,13.53
2018-12-30T11:48:11.622Z,16.27
2018-12-30T11:49:47.704Z,20.13
2018-12-30T11:51:23.833Z,16.50
2018-12-30T11:52:59.901Z,14.57
2018-12-30T11:54:36.090Z,19.47
2018-12-30T11:56:12.214Z,17.33
2018-12-30T11:57:48.351Z,16.33
2018-12-30T11:59:24.417Z,19.63
2018-12-30T12:01:00.426Z,17.83
2018-12-30T12:02:36.543Z,15.40
2018-12-30T12:04:12.630Z,19.40
2018-12-30T12:05:48.853Z,19.97
2018-12-30T12:07:24.925Z,16.53
2018-12-30T12:09:01.053Z,14.77
2018-12-30T12:10:38.351Z,21.40
2018-12-30T12:12:14.542Z,16.33
2018-12-30T12:13:50.581Z,16.40
2018-12-30T12:15:26.658Z,11.57
2018-12-30T12:17:02.750Z,20.17
2018-12-30T12:18:38.783Z,16.30
2018-12-30T12:20:14.894Z,14.00
2018-12-30T12:21:51.093Z,18.77
2018-12-30T12:23:27.271Z,16.27
2018-12-30T12:25:03.314Z,18.63
2018-12-30T12:26:39.359Z,16.87
2018-12-30T12:28:16.367Z,13.20
2018-12-30T12:29:52.495Z,19.73
2018-12-30T12:31:28.594Z,19.93
2018-12-30T12:33:04.702Z,13.00
2018-12-30T12:34:40.836Z,17.50
2018-12-30T12:36:17.070Z,17.80
2018-12-30T12:37:53.349Z,17.00
2018-12-30T12:39:29.378Z,13.30
2018-12-30T12:41:05.484Z,16.57
2018-12-30T12:42:41.540Z,18.13
2018-12-30T12:44:17.620Z,16.57
2018-12-30T12:45:53.696Z,12.87
2018-12-30T12:47:29.873Z,19.60
2018-12-30T12:49:06.235Z,13.87
2018-12-30T12:50:42.382Z,16.87
2018-12-30T12:52:18.834Z,27.63
2018-12-30T12:53:54.994Z,13.77
2018-12-30T12:55:31.120Z,15.87
2018-12-30T12:57:07.249Z,15.77
2018-12-30T12:58:43.280Z,14.60
2018-12-30T13:00:19.390Z,14.83
2018-12-30T13:01:55.397Z,12.43
2018-12-30T13:03:31.437Z,18.23
2018-12-30T13:05:07.602Z,14.97
2018-12-30T13:06:43.705Z,13.83
2018-12-30T13:08:19.881Z,13.17
2018-12-30T13:09:55.993Z,14.33
2018-12-30T13:11:32.009Z,12.60
2018-12-30T13:13:08.089Z,14.43
2018-12-30T13:14:44.336Z,15.67
2018-12-30T13:16:20.352Z,20.13
2018-12-30T13:17:56.425Z,17.83
2018-12-30T13:19:32.607Z,14.20
2018-12-30T13:21:08.619Z,17.97
2018-12-30T13:22:44.833Z,14.03
2018-12-30T13:24:20.990Z,12.67
2018-12-30T13:25:57.125Z,12.27
2018-12-30T13:27:33.347Z,13.33
2018-12-30T13:29:09.545Z,16.03
2018-12-30T13:30:45.718Z,13.13
2018-12-30T13:32:21.771Z,16.77
2018-12-30T13:33:57.993Z,12.77
2018-12-30T13:35:34.026Z,13.43
2018-12-30T13:37:10.131Z,13.63
2018-12-30T13:38:46.218Z,11.73
2018-12-30T13:40:22.374Z,15.40
2018-12-30T13:41:58.587Z,13.93
2018-12-30T13:43:34.645Z,14.27
2018-12-30T13:45:10.806Z,12.90
2018-12-30T13:46:46.912Z,13.80
2018-12-30T13:48:22.975Z,13.37
2018-12-30T13:49:59.065Z,12.57
2018-12-30T13:51:35.130Z,13.43
2018-12-30T13:53:11.175Z,12.77
2018-12-30T13:54:47.879Z,13.20
2018-12-30T13:56:25.061Z,13.40
2018-12-30T13:58:01.236Z,14.20
2018-12-30T13:59:37.259Z,10.90
2018-12-30T14:01:13.384Z,10.63
2018-12-30T14:02:49.422Z,15.17
2018-12-30T14:04:25.481Z,11.50
2018-12-30T14:06:01.498Z,14.97
2018-12-30T14:07:37.514Z,15.77
2018-12-30T14:09:14.132Z,14.53
2018-12-30T14:10:50.172Z,10.83
2018-12-30T14:12:26.289Z,16.13
2018-12-30T14:14:02.489Z,12.20
2018-12-30T14:15:38.689Z,14.50
2018-12-30T14:17:14.858Z,12.70
2018-12-30T14:18:51.008Z,12.67
2018-12-30T14:20:27.149Z,18.73
2018-12-30T14:22:03.253Z,16.73
2018-12-30T14:23:39.328Z,12.27
2018-12-30T14:25:15.371Z,11.30
2018-12-30T14:26:51.391Z,18.03
2018-12-30T14:28:27.631Z,17.23
2018-12-30T14:30:04.352Z,15.57
2018-12-30T14:31:40.490Z,15.97
2018-12-30T14:33:16.494Z,12.70
2018-12-30T14:34:52.579Z,12.43
2018-12-30T14:36:28.663Z,11.30
2018-12-30T14:38:04.759Z,12.27
2018-12-30T14:39:40.928Z,13.80
2018-12-30T14:41:17.014Z,15.87
2018-12-30T14:42:53.219Z,16.30
2018-12-30T14:44:29.355Z,17.27
2018-12-30T14:46:05.457Z,13.57
2018-12-30T14:47:41.710Z,16.33
2018-12-30T14:49:17.871Z,13.40
2018-12-30T14:50:53.937Z,14.93
2018-12-30T14:52:30.037Z,15.47
2018-12-30T14:54:06.264Z,12.63
2018-12-30T14:55:42.399Z,13.63
2018-12-30T14:57:18.531Z,13.37
2018-12-30T14:58:54.626Z,17.70
2018-12-30T15:00:30.777Z,13.90
2018-12-30T15:02:06.827Z,20.80
2018-12-30T15:03:43.034Z,14.00
2018-12-30T15:05:19.156Z,12.17
2018-12-30T15:06:55.330Z,18.93
2018-12-30T15:08:31.431Z,13.50
2018-12-30T15:10:07.690Z,13.03
2018-12-30T15:11:43.714Z,18.57
2018-12-30T15:13:19.752Z,13.87
2018-12-30T15:14:55.840Z,15.90
2018-12-30T15:16:32.020Z,17.00
2018-12-30T15:18:08.058Z,13.43
2018-12-30T15:19:44.312Z,17.60
2018-12-30T15:21:20.486Z,14.07
2018-12-30T15:22:56.721Z,18.50
2018-12-30T15:24:32.789Z,16.53
2018-12-30T15:26:08.833Z,13.13
2018-12-30T15:27:44.916Z,13.33
2018-12-30T15:29:21.054Z,25.83
2018-12-30T15:30:57.109Z,13.43
2018-12-30T15:32:33.160Z,10.80
2018-12-30T15:34:09.313Z,17.87
2018-12-30T15:35:45.365Z,9.60
2018-12-30T15:37:21.558Z,11.30
2018-12-30T15:38:58.030Z,12.27
2018-12-30T15:40:34.133Z,11.50
2018-12-30T15:42:10.261Z,12.33
2018-12-30T15:43:46.401Z,16.07
2018-12-30T15:45:22.550Z,14.03
2018-12-30T15:46:58.636Z,12.47
2018-12-30T15:48:34.811Z,13.20
2018-12-30T15:50:10.993Z,18.50
2018-12-30T15:51:47.107Z,14.50
2018-12-30T15:53:23.323Z,20.63
2018-12-30T15:55:05.335Z,15.20
2018-12-30T15:56:41.337Z,11.93
2018-12-30T15:58:17.706Z,16.03
2018-12-30T15:59:53.908Z,14.53
2018-12-30T16:01:29.949Z,15.97
2018-12-30T16:03:05.969Z,11.87
2018-12-30T16:04:42.035Z,14.73
2018-12-30T16:06:18.058Z,17.93
2018-12-30T16:07:54.187Z,12.93
2018-12-30T16:09:30.210Z,14.20
2018-12-30T16:11:06.323Z,11.23
2018-12-30T16:12:42.429Z,11.37
2018-12-30T16:14:18.606Z,14.33
2018-12-30T16:15:54.674Z,12.13
2018-12-30T16:17:30.697Z,14.40
2018-12-30T16:19:06.742Z,12.77
2018-12-30T16:20:42.835Z,13.73
2018-12-30T16:22:18.874Z,11.07
2018-12-30T16:23:54.906Z,15.07
2018-12-30T16:25:30.981Z,13.13
2018-12-30T16:27:07.003Z,13.33
2018-12-30T16:28:43.278Z,13.97
2018-12-30T16:30:19.480Z,15.03
2018-12-30T16:31:55.566Z,12.80
2018-12-30T16:33:31.581Z,13.50
2018-12-30T16:35:07.712Z,10.07
2018-12-30T16:36:43.799Z,14.70
2018-12-30T16:38:19.858Z,15.63
2018-12-30T16:39:55.895Z,14.27
2018-12-30T16:41:32.041Z,13.60
2018-12-30T16:43:08.137Z,11.47
2018-12-30T16:44:44.278Z,16.33
2018-12-30T16:46:20.462Z,14.63
2018-12-30T16:47:56.588Z,13.20
2018-12-30T16:49:32.755Z,13.67
2018-12-30T16:51:08.929Z,17.07
2018-12-30T16:52:45.018Z,15.60
2018-12-30T16:54:21.128Z,16.23
2018-12-30T16:55:57.190Z,13.67
2018-12-30T16:57:33.288Z,17.33
2018-12-30T16:59:09.323Z,13.83
2018-12-30T17:00:45.450Z,13.50
2018-12-30T17:02:21.482Z,14.10
2018-12-30T17:03:57.584Z,17.27
2018-12-30T17:05:33.634Z,14.90
2018-12-30T17:07:09.757Z,17.60
2018-12-30T17:08:46.218Z,11.87
2018-12-30T17:10:22.418Z,14.43
2018-12-30T17:11:58.508Z,17.23
2018-12-30T17:13:34.609Z,22.83
2018-12-30T17:15:10.634Z,17.23
2018-12-30T17:16:46.890Z,16.40
2018-12-30T17:18:23.070Z,14.17
2018-12-30T17:19:59.090Z,16.47
2018-12-30T17:21:35.233Z,17.40
2018-12-30T17:23:11.321Z,16.83
2018-12-30T17:24:47.476Z,15.97
2018-12-30T17:26:23.532Z,14.87
2018-12-30T17:27:59.606Z,16.97
2018-12-30T17:29:35.691Z,20.30
2018-12-30T17:31:11.745Z,15.33
2018-12-30T17:32:47.767Z,18.50
2018-12-30T17:34:23.838Z,18.30
2018-12-30T17:36:00.000Z,19.17
2018-12-30T17:37:36.014Z,13.93
2018-12-30T17:39:12.103Z,12.63
2018-12-30T17:40:48.494Z,12.60
2018-12-30T17:42:24.605Z,17.70
2018-12-30T17:44:00.691Z,16.43
2018-12-30T17:45:36.736Z,13.13
2018-12-30T17:47:13.027Z,15.40
2018-12-30T17:48:49.122Z,16.03
2018-12-30T17:50:25.134Z,16.83
2018-12-30T17:52:01.285Z,13.57
2018-12-30T17:53:37.477Z,17.43
2018-12-30T17:55:13.633Z,15.40
2018-12-30T17:56:49.695Z,13.90
2018-12-30T17:58:25.802Z,18.17
2018-12-30T18:00:03.731Z,14.47
2018-12-30T18:01:40.078Z,13.30
2018-12-30T18:03:16.246Z,13.03
2018-12-30T18:04:52.278Z,14.43
2018-12-30T18:06:28.415Z,13.17
2018-12-30T18:08:04.570Z,16.50
2018-12-30T18:09:40.573Z,16.80
2018-12-30T18:11:16.610Z,14.53
2018-12-30T18:12:52.660Z,14.40
2018-12-30T18:14:28.740Z,16.50
2018-12-30T18:16:04.763Z,15.07
2018-12-30T18:17:41.556Z,13.53
2018-12-30T18:19:17.894Z,15.17
2018-12-30T18:20:53.914Z,18.17
2018-12-30T18:22:29.969Z,16.67
2018-12-30T18:24:06.094Z,15.47
2018-12-30T18:25:42.163Z,12.03
2018-12-30T18:27:18.314Z,19.47
2018-12-30T18:28:54.405Z,14.43
2018-12-30T18:30:30.489Z,15.77
2018-12-30T18:32:06.629Z,22.63
2018-12-30T18:33:42.778Z,15.00
2018-12-30T18:35:18.901Z,13.97
2018-12-30T18:36:55.038Z,17.23
2018-12-30T18:38:31.061Z,16.90
2018-12-30T18:40:07.682Z,16.90
2018-12-30T18:41:43.694Z,18.37
2018-12-30T18:43:19.836Z,15.60
2018-12-30T18:44:55.918Z,12.97
2018-12-30T18:46:32.030Z,20.63
2018-12-30T18:48:08.094Z,14.07
2018-12-30T18:49:44.140Z,18.73
2018-12-30T18:51:20.198Z,13.33
2018-12-30T18:52:56.309Z,16.10
2018-12-30T18:54:32.481Z,13.37
2018-12-30T18:56:08.630Z,14.27
2018-12-30T18:57:44.734Z,17.80
2018-12-30T18:59:20.780Z,16.00
2018-12-30T19:00:56.909Z,16.37
2018-12-30T19:02:32.987Z,17.27
2018-12-30T19:04:09.348Z,17.20
2018-12-30T19:05:45.434Z,15.70
2018-12-30T19:07:21.473Z,17.00
2018-12-30T19:08:57.547Z,14.77
2018-12-30T19:10:33.664Z,15.20
2018-12-30T19:12:09.747Z,13.27
2018-12-30T19:13:45.876Z,14.30
2018-12-30T19:15:22.109Z,19.67
2018-12-30T19:16:58.197Z,19.50
2018-12-30T19:18:34.293Z,18.10
2018-12-30T19:20:10.386Z,14.20
2018-12-30T19:21:46.440Z,21.10
2018-12-30T19:23:22.636Z,15.23
2018-12-30T19:24:58.669Z,14.80
2018-12-30T19:26:34.923Z,16.13
2018-12-30T19:28:10.958Z,18.60
2018-12-30T19:29:47.090Z,15.07
2018-12-30T19:31:23.092Z,19.57
2018-12-30T19:32:59.149Z,14.07
2018-12-30T19:34:35.181Z,18.70
2018-12-30T19:36:11.330Z,16.13
2018-12-30T19:37:47.498Z,17.63
2018-12-30T19:39:23.718Z,14.40
2018-12-30T19:40:59.803Z,17.30
2018-12-30T19:42:35.816Z,14.73
2018-12-30T19:44:11.898Z,15.50
2018-12-30T19:45:47.974Z,13.23
2018-12-30T19:47:23.968Z,18.53
2018-12-30T19:49:00.076Z,13.53
2018-12-30T19:50:36.245Z,16.83
2018-12-30T19:52:12.502Z,18.03
2018-12-30T19:53:48.812Z,14.83
2018-12-30T19:55:24.926Z,17.17
2018-12-30T19:57:01.065Z,14.60
2018-12-30T19:58:37.185Z,15.43
2018-12-30T20:00:13.232Z,15.57
2018-12-30T20:01:49.493Z,13.50
2018-12-30T20:03:26.592Z,11.93
2018-12-30T20:05:02.741Z,15.03
2018-12-30T20:06:38.761Z,12.60
2018-12-30T20:08:14.822Z,13.03
2018-12-30T20:09:50.930Z,14.47
2018-12-30T20:11:26.950Z,18.87
2018-12-30T20:13:08.985Z,14.87
2018-12-30T20:14:40.831Z,15.90
2018-12-30T20:16:16.858Z,15.77
2018-12-30T20:17:52.943Z,16.97
2018-12-30T20:19:29.153Z,14.13
2018-12-30T20:21:05.295Z,16.27
2018-12-30T20:22:41.393Z,13.23
2018-12-30T20:24:17.526Z,17.93
2018-12-30T20:25:53.546Z,15.63
2018-12-30T20:27:29.762Z,15.23
2018-12-30T20:29:05.938Z,20.73
2018-12-30T20:30:42.097Z,15.27
2018-12-30T20:32:18.218Z,18.00
2018-12-30T20:33:54.365Z,12.77
2018-12-30T20:35:30.574Z,15.77
2018-12-30T20:37:06.666Z,17.80
2018-12-30T20:38:42.794Z,16.33